Time;durP1;ratioP1;P1;durP2;ratioP2;P2;SDS_P1;SDS_P2;PMS_P1;PMS_P2;Temp;Humidity;BMP_temperature;BMP_pressure;BME280_temperature;BME280_humidity;BME280_pressure;Samples;Min_cycle;Max_cycle;Signal;HPM_P1;HPM_P2
2023/04/27 00:00:48;;;;;;;5.43;4.93;;;;;;;7.98;82.53;153409.41;4972749;28;20454;-84
2023/04/27 00:03:14;;;;;;;6.97;5.80;;;;;;;7.99;83.02;153413.25;4972395;28;20802;-84
2023/04/27 00:05:42;;;;;;;5.60;4.97;;;;;;;8.01;82.92;153415.84;4970820;28;20897;-84
2023/04/27 00:08:09;;;;;;;6.60;5.73;;;;;;;7.99;82.59;153412.00;4964287;28;20820;-84
2023/04/27 00:10:36;;;;;;;5.87;5.33;;;;;;;8.00;83.18;153414.53;4972903;28;20477;-84
2023/04/27 00:13:02;;;;;;;6.10;5.50;;;;;;;7.97;83.71;153406.78;4963945;28;20486;-84
2023/04/27 00:15:29;;;;;;;5.97;5.37;;;;;;;7.95;83.14;153402.94;4940807;28;20465;-84
2023/04/27 00:17:57;;;;;;;6.07;5.17;;;;;;;7.95;82.64;153401.63;4956300;28;20457;-83
2023/04/27 00:20:23;;;;;;;10.20;5.67;;;;;;;7.94;84.03;153400.34;4981223;28;20462;-84
2023/04/27 00:22:51;;;;;;;6.70;5.37;;;;;;;7.90;81.60;153388.72;4988969;28;20486;-84
2023/04/27 00:25:18;;;;;;;5.70;5.10;;;;;;;7.91;79.78;153392.63;4969129;28;20960;-84
2023/04/27 00:27:44;;;;;;;8.73;5.27;;;;;;;7.99;80.59;153412.00;4969960;28;20466;-84
2023/04/27 00:30:11;;;;;;;5.40;4.70;;;;;;;8.03;81.96;153422.31;4957321;28;20476;-84
2023/04/27 00:32:38;;;;;;;6.40;4.93;;;;;;;8.02;82.22;153419.75;4979231;28;20486;-83
2023/04/27 00:35:05;;;;;;;6.27;5.07;;;;;;;8.09;85.37;153436.53;4973014;28;20688;-83
2023/04/27 00:37:31;;;;;;;7.03;5.50;;;;;;;8.02;84.82;153419.75;4963811;28;20454;-84
2023/04/27 00:40:00;;;;;;;5.80;5.27;;;;;;;7.95;82.12;153401.63;4972993;28;20984;-83
2023/04/27 00:42:26;;;;;;;5.90;5.30;;;;;;;7.94;81.64;153400.34;4955091;28;20438;-84
2023/04/27 00:44:53;;;;;;;5.80;5.20;;;;;;;7.92;80.43;153393.88;4956402;28;20465;-84
2023/04/27 00:47:19;;;;;;;6.97;5.80;;;;;;;7.95;79.95;153401.63;4987889;28;20552;-84
2023/04/27 00:49:46;;;;;;;6.20;5.67;;;;;;;7.96;79.23;153404.22;4948885;28;20552;-84
2023/04/27 00:52:13;;;;;;;7.60;5.43;;;;;;;7.97;80.80;153406.78;4985886;28;20477;-84
2023/04/27 00:54:39;;;;;;;9.03;5.60;;;;;;;8.01;82.29;153415.84;4950424;28;20468;-84
2023/04/27 00:57:08;;;;;;;6.80;5.30;;;;;;;7.98;80.21;153409.41;4970595;28;20450;-84
2023/04/27 00:59:35;;;;;;;7.67;5.37;;;;;;;8.03;83.63;153422.31;4952024;28;20453;-84
2023/04/27 01:02:02;;;;;;;7.27;6.10;;;;;;;8.03;83.51;153421.00;4971714;28;20446;-84
2023/04/27 01:04:28;;;;;;;5.60;5.10;;;;;;;8.04;84.52;153423.63;4986862;28;20512;-83
2023/04/27 01:06:55;;;;;;;5.67;5.10;;;;;;;8.03;86.15;153421.00;4989883;28;20569;-84
2023/04/27 01:09:22;;;;;;;7.37;5.87;;;;;;;7.99;86.38;153412.00;4973990;28;20455;-83
2023/04/27 01:11:49;;;;;;;7.00;5.90;;;;;;;7.95;86.01;153402.94;4979321;28;20485;-84
2023/04/27 01:14:17;;;;;;;6.20;5.37;;;;;;;7.94;84.83;153399.09;4970438;28;20498;-84
2023/04/27 01:16:45;;;;;;;6.93;5.93;;;;;;;7.89;82.56;153387.41;4980378;28;20463;-83
2023/04/27 01:19:12;;;;;;;7.03;6.33;;;;;;;7.95;85.27;153401.63;4956568;28;21043;-84
2023/04/27 01:21:38;;;;;;;7.57;6.50;;;;;;;7.97;86.69;153406.78;4992714;28;20941;-84
2023/04/27 01:24:08;;;;;;;8.13;6.53;;;;;;;7.90;82.55;153390.03;4982623;28;20462;-84
2023/04/27 01:26:37;;;;;;;8.77;7.90;;;;;;;7.91;82.36;153392.63;4979957;28;20520;-83
2023/04/27 01:29:03;;;;;;;8.03;6.67;;;;;;;7.93;84.56;153397.78;5002583;28;20464;-83
2023/04/27 01:31:30;;;;;;;7.50;6.70;;;;;;;7.94;88.43;153399.09;4958975;28;20489;-83
2023/04/27 01:33:57;;;;;;;8.47;6.57;;;;;;;7.85;88.00;153375.81;4985864;28;20535;-84
2023/04/27 01:36:23;;;;;;;8.87;6.10;;;;;;;7.79;87.66;153360.28;4948462;28;20453;-83
2023/04/27 01:38:50;;;;;;;7.50;6.23;;;;;;;7.81;90.18;153365.50;4958807;28;21083;-83
2023/04/27 01:41:18;;;;;;;7.80;7.00;;;;;;;7.76;89.52;153353.84;4975289;28;20541;-83
2023/04/27 01:43:44;;;;;;;8.17;6.93;;;;;;;7.69;88.67;153334.47;4974773;28;20460;-84
2023/04/27 01:46:12;;;;;;;7.97;7.03;;;;;;;7.71;90.10;153340.91;4964413;28;20538;-84
2023/04/27 01:48:40;;;;;;;8.20;7.13;;;;;;;7.68;88.83;153331.84;4988653;28;20549;-83
2023/04/27 01:51:07;;;;;;;9.37;7.00;;;;;;;7.65;86.56;153324.16;4959730;28;20465;-84
2023/04/27 01:53:34;;;;;;;8.10;7.30;;;;;;;7.66;87.11;153326.72;4978139;28;20517;-83
2023/04/27 01:56:00;;;;;;;8.47;6.93;;;;;;;7.67;87.32;153329.31;4953269;28;20856;-84
2023/04/27 01:58:29;;;;;;;9.03;8.13;;;;;;;7.67;88.80;153330.59;4966832;28;20476;-83
2023/04/27 02:00:55;;;;;;;8.27;7.47;;;;;;;7.64;89.08;153322.84;4945933;28;20497;-83
2023/04/27 02:03:22;;;;;;;7.60;6.80;;;;;;;7.64;89.81;153322.84;4977324;28;20924;-83
2023/04/27 02:05:50;;;;;;;8.43;7.63;;;;;;;7.61;89.54;153315.09;4967270;28;20470;-83
2023/04/27 02:08:16;;;;;;;8.00;7.20;;;;;;;7.55;88.79;153299.59;4984392;28;20539;-83
2023/04/27 02:10:44;;;;;;;8.83;7.63;;;;;;;7.57;89.22;153303.47;4979660;28;20481;-83
2023/04/27 02:13:11;;;;;;;8.40;7.60;;;;;;;7.67;84.20;153329.31;4960220;28;20477;-83
2023/04/27 02:15:39;;;;;;;8.53;6.83;;;;;;;7.68;84.96;153333.16;4958085;28;20537;-84
2023/04/27 02:18:06;;;;;;;7.83;7.03;;;;;;;7.65;86.48;153324.16;4989969;28;20445;-83
2023/04/27 02:20:33;;;;;;;10.60;7.90;;;;;;;7.61;86.86;153313.78;4966166;28;20558;-84
2023/04/27 02:23:01;;;;;;;9.47;7.77;;;;;;;7.57;88.14;153304.72;4974831;28;20465;-82
2023/04/27 02:25:27;;;;;;;8.70;7.80;;;;;;;7.55;88.59;153299.59;4968188;28;20518;-82
2023/04/27 02:27:54;;;;;;;11.20;8.13;;;;;;;7.57;90.04;153304.72;4959278;28;20808;-82
2023/04/27 02:30:21;;;;;;;9.00;8.10;;;;;;;7.53;87.69;153293.13;4983257;28;20461;-83
2023/04/27 02:32:48;;;;;;;9.77;7.87;;;;;;;7.54;88.11;153297.03;4985939;28;20476;-81
2023/04/27 02:35:15;;;;;;;9.10;8.20;;;;;;;7.54;88.35;153295.72;4962971;28;20451;-82
2023/04/27 02:37:42;;;;;;;9.10;7.50;;;;;;;7.50;88.48;153285.38;4974216;28;21062;-81
2023/04/27 02:40:10;;;;;;;7.87;6.87;;;;;;;7.52;90.30;153291.81;4969011;28;20468;-82
2023/04/27 02:42:38;;;;;;;7.87;7.17;;;;;;;7.53;91.36;153293.13;4974659;28;20465;-82
2023/04/27 02:45:06;;;;;;;8.20;7.40;;;;;;;7.48;89.82;153281.50;4968931;28;20438;-82
2023/04/27 02:47:32;;;;;;;9.00;7.80;;;;;;;7.43;90.05;153268.59;4977652;28;20464;-82
2023/04/27 02:50:00;;;;;;;10.77;7.83;;;;;;;7.42;91.01;153264.69;4967010;28;20939;-82
2023/04/27 02:52:27;;;;;;;9.30;8.10;;;;;;;7.44;92.19;153269.91;4965160;28;20517;-82
2023/04/27 02:54:54;;;;;;;11.10;9.20;;;;;;;7.46;93.84;153276.34;4958637;28;20486;-82
2023/04/27 02:57:20;;;;;;;9.60;8.57;;;;;;;7.45;94.75;153273.75;4974288;28;20447;-82
2023/04/27 02:59:47;;;;;;;8.90;8.00;;;;;;;7.45;95.13;153272.47;4984840;28;20446;-82
2023/04/27 03:02:13;;;;;;;9.30;8.20;;;;;;;7.39;93.25;153257.00;4956192;28;20489;-82
2023/04/27 03:04:40;;;;;;;9.80;8.80;;;;;;;7.35;93.05;153247.94;4973540;28;20458;-82
2023/04/27 03:07:08;;;;;;;10.07;8.93;;;;;;;7.31;93.39;153237.59;4957927;28;20468;-82
2023/04/27 03:09:36;;;;;;;11.20;8.97;;;;;;;7.30;94.29;153236.34;4978796;28;20477;-83
2023/04/27 03:12:03;;;;;;;9.30;8.40;;;;;;;7.30;95.32;153236.34;4954023;28;20461;-82
2023/04/27 03:14:30;;;;;;;9.00;7.80;;;;;;;7.26;95.43;153225.97;4984680;28;20895;-82
2023/04/27 03:16:57;;;;;;;13.90;8.80;;;;;;;7.24;93.89;153219.53;4979942;28;20445;-82
2023/04/27 03:19:24;;;;;;;9.10;8.20;;;;;;;7.26;92.28;153225.97;4960318;28;20465;-82
2023/04/27 03:21:50;;;;;;;10.00;8.43;;;;;;;7.32;92.91;153240.19;4971663;28;20483;-82
2023/04/27 03:24:18;;;;;;;9.70;8.70;;;;;;;7.40;93.79;153259.53;4968039;28;20869;-82
2023/04/27 03:26:45;;;;;;;9.43;8.43;;;;;;;7.46;94.20;153275.06;4975664;28;20453;-83
2023/04/27 03:29:11;;;;;;;8.70;7.80;;;;;;;7.49;94.68;153284.13;4973347;28;20796;-82
2023/04/27 03:31:38;;;;;;;9.60;8.53;;;;;;;7.38;92.33;153254.41;4951251;28;20484;-83
2023/04/27 03:34:05;;;;;;;11.87;8.43;;;;;;;7.45;94.80;153272.47;4957024;28;20912;-82
2023/04/27 03:36:32;;;;;;;10.83;9.20;;;;;;;7.38;93.01;153254.41;4958157;28;20446;-82
2023/04/27 03:38:58;;;;;;;9.97;7.70;;;;;;;7.38;92.16;153254.41;4974008;28;20446;-82
2023/04/27 03:41:26;;;;;;;8.47;7.67;;;;;;;7.40;91.50;153259.53;4959149;28;20462;-82
2023/04/27 03:43:53;;;;;;;10.93;7.87;;;;;;;7.44;92.11;153271.16;4970925;28;20829;-83
2023/04/27 03:46:19;;;;;;;8.57;7.60;;;;;;;7.44;89.50;153269.91;4980943;28;20801;-82
2023/04/27 03:48:46;;;;;;;9.07;8.17;;;;;;;7.45;87.65;153272.47;4950930;28;21009;-82
2023/04/27 03:51:13;;;;;;;8.30;7.50;;;;;;;7.60;85.79;153312.50;4964317;28;20457;-82
2023/04/27 03:53:44;;;;;;;8.83;7.93;;;;;;;7.67;84.96;153329.31;4956207;28;20513;-82
2023/04/27 03:56:10;;;;;;;7.90;7.10;;;;;;;7.65;84.91;153325.41;4972715;28;20532;-82
2023/04/27 03:58:50;;;;;;;11.23;8.20;;;;;;;7.64;87.55;153322.84;4956356;28;20454;-83
2023/04/27 04:01:20;;;;;;;8.23;7.40;;;;;;;7.65;90.00;153324.16;4971512;28;20875;-82
2023/04/27 04:03:47;;;;;;;10.70;8.40;;;;;;;7.57;89.44;153304.72;4960851;28;20462;-82
2023/04/27 04:06:14;;;;;;;9.43;8.40;;;;;;;7.52;89.49;153291.81;4972049;28;20458;-82
2023/04/27 04:08:40;;;;;;;9.40;8.50;;;;;;;7.53;90.53;153293.13;4954251;28;20460;-82
2023/04/27 04:11:07;;;;;;;10.47;7.90;;;;;;;7.50;91.24;153286.66;4973067;28;20509;-82
2023/04/27 04:13:35;;;;;;;10.30;8.90;;;;;;;7.47;91.78;153277.63;4957109;28;21063;-83
2023/04/27 04:16:05;;;;;;;10.50;8.50;;;;;;;7.42;92.05;153264.69;4953806;28;20466;-83
2023/04/27 04:18:32;;;;;;;8.97;8.17;;;;;;;7.40;91.54;153259.53;4947778;28;20512;-83
2023/04/27 04:20:59;;;;;;;10.10;7.87;;;;;;;7.42;91.82;153264.69;4960902;28;20466;-84
2023/04/27 04:23:26;;;;;;;8.00;7.20;;;;;;;7.41;90.82;153262.16;4964963;28;20534;-83
2023/04/27 04:25:55;;;;;;;9.70;8.73;;;;;;;7.46;92.83;153275.06;4954628;28;20456;-83
2023/04/27 04:28:22;;;;;;;11.40;8.30;;;;;;;7.40;92.76;153260.84;4943207;28;20573;-83
2023/04/27 04:30:49;;;;;;;9.40;8.40;;;;;;;7.38;93.88;153254.41;4961905;28;20459;-83
2023/04/27 04:33:18;;;;;;;9.73;8.70;;;;;;;7.39;95.34;153257.00;4956700;28;20462;-83
2023/04/27 04:35:45;;;;;;;10.90;9.57;;;;;;;7.35;95.06;153249.25;4988637;28;20480;-83
2023/04/27 04:38:12;;;;;;;10.37;9.37;;;;;;;7.34;95.36;153246.63;5007396;28;20551;-82
2023/04/27 04:40:41;;;;;;;11.33;10.13;;;;;;;7.36;95.87;153251.78;4971674;28;21634;-83
2023/04/27 04:43:07;;;;;;;10.57;8.90;;;;;;;7.34;95.82;153246.63;4966624;28;20481;-83
2023/04/27 04:45:34;;;;;;;9.87;8.90;;;;;;;7.33;95.07;153244.03;4954754;28;20469;-83
2023/04/27 04:48:00;;;;;;;9.70;8.70;;;;;;;7.33;95.04;153244.03;4970850;28;20454;-83
2023/04/27 04:50:29;;;;;;;11.43;10.23;;;;;;;7.33;95.75;153244.03;4970215;28;20457;-83
2023/04/27 04:52:56;;;;;;;9.83;8.83;;;;;;;7.33;95.03;153244.03;4989906;28;20457;-82
2023/04/27 04:55:22;;;;;;;11.30;8.97;;;;;;;7.33;95.09;153242.78;4955526;28;21514;-82
2023/04/27 04:57:49;;;;;;;13.10;9.70;;;;;;;7.39;96.55;153258.25;4969408;28;20472;-81
2023/04/27 05:00:16;;;;;;;10.17;9.13;;;;;;;7.44;96.27;153271.16;4955499;28;20532;-82
2023/04/27 05:02:43;;;;;;;9.43;7.87;;;;;;;7.47;96.84;153277.63;4963940;28;20461;-83
2023/04/27 05:05:09;;;;;;;10.07;8.90;;;;;;;7.54;95.97;153295.72;4969699;28;20480;-82
2023/04/27 05:07:37;;;;;;;13.20;7.77;;;;;;;7.52;94.72;153290.56;4979126;28;20454;-84
2023/04/27 05:10:05;;;;;;;9.00;8.10;;;;;;;7.53;95.21;153294.44;4980796;28;20489;-83
2023/04/27 05:12:31;;;;;;;11.57;8.80;;;;;;;7.58;97.51;153306.03;4978557;28;20549;-82
2023/04/27 05:14:58;;;;;;;9.40;8.50;;;;;;;7.53;96.31;153293.13;4981921;28;20967;-83
2023/04/27 05:17:24;;;;;;;9.63;8.30;;;;;;;7.55;96.79;153299.59;4991613;28;20461;-82
2023/04/27 05:19:51;;;;;;;8.90;8.00;;;;;;;7.61;97.71;153315.09;4988627;28;20458;-83
2023/04/27 05:22:20;;;;;;;9.20;8.03;;;;;;;7.65;97.08;153324.16;4979371;28;20453;-82
2023/04/27 05:24:48;;;;;;;11.60;8.73;;;;;;;7.69;95.54;153334.47;4975439;28;20470;-82
2023/04/27 05:27:15;;;;;;;9.17;8.10;;;;;;;7.72;94.08;153343.53;4969319;28;20535;-83
2023/04/27 05:29:42;;;;;;;10.80;8.13;;;;;;;7.78;93.90;153357.72;4991501;28;20468;-83
2023/04/27 05:32:09;;;;;;;16.63;8.40;;;;;;;7.83;95.01;153370.66;4981607;28;20791;-82
2023/04/27 05:34:35;;;;;;;9.17;8.20;;;;;;;7.88;95.75;153383.56;4989996;28;20481;-83
2023/04/27 05:37:02;;;;;;;10.57;8.30;;;;;;;7.91;96.06;153391.31;4989296;28;20476;-82
2023/04/27 05:39:28;;;;;;;9.50;8.40;;;;;;;7.94;96.19;153399.09;4989823;28;20883;-83
2023/04/27 05:41:56;;;;;;;9.03;7.90;;;;;;;7.97;95.11;153406.78;4990725;28;20805;-82
2023/04/27 05:44:27;;;;;;;9.73;8.50;;;;;;;8.00;94.65;153414.53;4965473;28;20456;-83
2023/04/27 05:46:53;;;;;;;10.00;9.00;;;;;;;8.06;95.64;153430.06;4971616;28;20466;-83
2023/04/27 05:49:20;;;;;;;10.20;9.13;;;;;;;8.13;97.58;153448.13;4991715;28;20454;-83
2023/04/27 05:51:47;;;;;;;9.77;8.60;;;;;;;8.19;98.38;153463.66;4976771;28;20476;-81
2023/04/27 05:54:13;;;;;;;10.30;8.73;;;;;;;8.25;99.08;153477.88;4991531;28;20571;-82
2023/04/27 05:56:40;;;;;;;10.40;9.30;;;;;;;8.31;100.00;153493.47;4980734;28;20458;-83
2023/04/27 05:59:08;;;;;;;12.00;9.30;;;;;;;8.31;100.00;153493.47;4963684;28;20569;-83
2023/04/27 06:01:35;;;;;;;11.63;8.97;;;;;;;8.36;100.00;153507.69;4977757;28;20465;-82
2023/04/27 06:04:02;;;;;;;9.80;8.80;;;;;;;8.38;99.96;153512.84;4977665;28;20566;-83
2023/04/27 06:06:31;;;;;;;9.73;8.73;;;;;;;8.45;100.00;153530.91;4969338;28;20543;-82
2023/04/27 06:08:58;;;;;;;10.83;8.53;;;;;;;8.51;99.35;153546.44;4975023;28;20501;-83
2023/04/27 06:11:24;;;;;;;9.20;8.30;;;;;;;8.58;98.27;153564.53;4988499;28;20830;-84
2023/04/27 06:13:51;;;;;;;11.83;8.67;;;;;;;8.67;98.54;153586.50;4978033;28;20544;-84
2023/04/27 06:16:19;;;;;;;10.27;9.17;;;;;;;8.74;98.43;153603.28;4988735;28;20807;-84
2023/04/27 06:18:46;;;;;;;10.57;8.80;;;;;;;8.80;97.79;153620.13;4989798;28;20462;-84
2023/04/27 06:21:12;;;;;;;10.70;8.37;;;;;;;8.86;96.35;153634.34;4979463;28;20464;-84
2023/04/27 06:23:39;;;;;;;10.87;8.30;;;;;;;8.89;92.01;153642.13;4967072;28;20561;-83
2023/04/27 06:26:05;;;;;;;9.63;7.50;;;;;;;9.00;89.91;153671.81;4990138;28;20556;-84
2023/04/27 06:28:32;;;;;;;8.77;7.33;;;;;;;9.10;88.01;153696.41;4983687;28;20470;-83
2023/04/27 06:30:59;;;;;;;8.67;7.30;;;;;;;9.24;89.77;153732.59;4990475;28;20458;-84
2023/04/27 06:33:27;;;;;;;8.17;7.37;;;;;;;9.37;89.56;153764.97;4972946;28;20457;-84
2023/04/27 06:35:53;;;;;;;8.63;6.70;;;;;;;9.46;88.70;153789.53;4982852;28;20493;-78
2023/04/27 06:38:21;;;;;;;8.60;7.70;;;;;;;9.51;85.07;153801.16;4984630;28;20481;-78
2023/04/27 06:40:50;;;;;;;8.13;7.33;;;;;;;9.61;85.91;153827.06;4953758;28;21018;-78
2023/04/27 06:43:17;;;;;;;9.20;8.30;;;;;;;9.68;84.51;153846.47;4985770;28;20556;-78
2023/04/27 06:45:43;;;;;;;8.10;6.93;;;;;;;9.80;86.09;153877.50;4973256;28;20508;-78
2023/04/27 06:48:10;;;;;;;9.13;8.20;;;;;;;9.93;86.80;153908.59;4976477;28;20454;-83
2023/04/27 06:50:38;;;;;;;9.40;7.70;;;;;;;10.06;85.74;153943.50;4987172;28;20804;-83
2023/04/27 06:53:04;;;;;;;12.10;8.60;;;;;;;10.25;88.12;153991.44;4909501;28;20498;-82
2023/04/27 06:55:43;;;;;;;9.23;8.27;;;;;;;10.38;87.40;154025.09;4976044;28;20478;-79
2023/04/27 06:58:34;;;;;;;10.17;7.80;;;;;;;10.55;86.18;154067.84;4960427;28;20463;-83
2023/04/27 07:01:01;;;;;;;9.80;8.40;;;;;;;10.76;85.47;154123.53;4975782;28;20899;-83
2023/04/27 07:03:40;;;;;;;11.90;8.47;;;;;;;10.95;84.89;154171.44;4972959;28;20472;-83
2023/04/27 07:06:21;;;;;;;9.47;8.47;;;;;;;11.13;85.20;154218.06;4983712;28;21318;-83
2023/04/27 07:08:47;;;;;;;8.90;7.87;;;;;;;11.24;84.42;154245.25;4986985;28;20460;-83
2023/04/27 07:11:15;;;;;;;11.10;10.10;;;;;;;11.45;83.61;154299.69;4977857;28;20583;-83
2023/04/27 07:13:41;;;;;;;13.10;8.97;;;;;;;11.64;82.33;154348.94;4969693;28;20465;-83
2023/04/27 07:16:10;;;;;;;8.80;7.90;;;;;;;11.84;83.79;154399.50;4987432;28;20488;-83
2023/04/27 07:18:37;;;;;;;13.73;8.87;;;;;;;12.01;79.90;154444.91;4977114;28;20528;-84
2023/04/27 07:21:03;;;;;;;10.87;8.63;;;;;;;12.29;78.70;154514.84;4991420;28;21006;-83
2023/04/27 07:23:31;;;;;;;11.73;8.30;;;;;;;12.52;80.50;154574.53;4978399;28;20590;-82
2023/04/27 07:25:58;;;;;;;11.27;8.40;;;;;;;12.80;80.79;154648.47;4988203;28;20459;-83
2023/04/27 07:28:24;;;;;;;8.10;7.30;;;;;;;13.13;74.18;154732.78;4988188;28;20500;-83
2023/04/27 07:30:51;;;;;;;11.30;8.50;;;;;;;13.52;72.12;154832.75;4979567;28;20951;-83
2023/04/27 07:33:18;;;;;;;10.33;8.37;;;;;;;13.76;68.96;154893.75;4988264;28;20451;-83
2023/04/27 07:35:44;;;;;;;8.20;7.40;;;;;;;13.91;66.90;154932.66;4961297;28;20519;-83
2023/04/27 07:38:11;;;;;;;10.50;8.00;;;;;;;14.04;66.24;154966.41;4978255;28;20453;-82
2023/04/27 07:40:39;;;;;;;8.83;7.87;;;;;;;14.15;65.16;154995.00;4988129;28;20468;-83
2023/04/27 07:43:05;;;;;;;9.03;7.77;;;;;;;14.35;63.06;155046.97;4978606;28;20504;-82
2023/04/27 07:45:32;;;;;;;10.43;7.83;;;;;;;14.49;61.88;155082.03;4959179;28;20532;-83
2023/04/27 07:48:00;;;;;;;8.50;7.37;;;;;;;14.70;61.75;155135.28;4978498;28;20998;-84
2023/04/27 07:50:28;;;;;;;8.70;7.73;;;;;;;14.86;59.76;155176.84;4978753;28;20802;-84
2023/04/27 07:52:55;;;;;;;8.50;7.20;;;;;;;14.97;62.27;155205.44;4978089;28;20469;-84
2023/04/27 07:55:22;;;;;;;8.17;6.63;;;;;;;15.16;59.42;155254.81;4952111;28;20830;-84
2023/04/27 07:57:50;;;;;;;9.33;7.20;;;;;;;15.34;59.28;155301.59;4974520;28;20442;-84
2023/04/27 08:00:17;;;;;;;7.33;6.63;;;;;;;15.46;56.52;155331.56;4976199;28;20461;-84
2023/04/27 08:02:44;;;;;;;8.20;7.40;;;;;;;15.08;56.74;155235.34;4993581;28;20457;-84
2023/04/27 08:05:11;;;;;;;10.17;7.77;;;;;;;14.86;55.85;155176.84;4977177;28;20458;-84
2023/04/27 08:07:38;;;;;;;10.77;7.20;;;;;;;14.87;58.42;155180.78;4988145;28;20470;-84
2023/04/27 08:10:05;;;;;;;8.20;7.40;;;;;;;15.15;57.10;155252.22;4958023;28;20486;-84
2023/04/27 08:12:32;;;;;;;7.87;7.07;;;;;;;15.23;55.91;155273.00;4968998;28;20460;-84
2023/04/27 08:15:00;;;;;;;8.90;7.70;;;;;;;15.43;60.42;155325.00;4958965;28;20474;-84
2023/04/27 08:17:27;;;;;;;8.93;7.73;;;;;;;15.63;55.41;155377.03;4967387;28;20482;-84
2023/04/27 08:19:53;;;;;;;9.63;7.43;;;;;;;15.76;57.40;155410.84;4968365;28;20978;-84
2023/04/27 08:22:20;;;;;;;8.67;7.87;;;;;;;15.77;56.19;155412.13;4951705;28;20565;-84
2023/04/27 08:24:47;;;;;;;11.00;8.63;;;;;;;15.67;56.13;155387.41;4967804;28;20456;-83
2023/04/27 08:27:14;;;;;;;12.00;7.90;;;;;;;15.25;55.93;155278.19;4977336;28;20485;-83
2023/04/27 08:29:46;;;;;;;8.30;7.40;;;;;;;15.15;56.90;155253.53;4975579;28;20518;-83
2023/04/27 08:32:14;;;;;;;9.30;8.10;;;;;;;15.08;55.89;155235.34;4942328;28;20471;-83
2023/04/27 08:34:41;;;;;;;8.73;7.33;;;;;;;14.98;55.88;155208.06;4975968;28;20461;-83
2023/04/27 08:37:08;;;;;;;8.23;7.03;;;;;;;15.11;56.06;155241.84;4980245;28;20855;-84
2023/04/27 08:39:34;;;;;;;7.53;6.73;;;;;;;15.37;55.56;155308.09;4979800;28;20451;-83
2023/04/27 08:42:01;;;;;;;6.77;6.10;;;;;;;15.42;53.08;155322.41;4972524;28;20470;-84
2023/04/27 08:44:27;;;;;;;9.77;6.13;;;;;;;15.52;55.23;155348.44;4987850;28;20461;-83
2023/04/27 08:46:54;;;;;;;6.13;5.57;;;;;;;15.73;54.19;155403.03;4986847;28;20470;-84
2023/04/27 08:49:22;;;;;;;7.03;5.90;;;;;;;15.94;53.53;155456.31;4981505;28;20460;-84
2023/04/27 08:51:48;;;;;;;9.03;6.23;;;;;;;16.01;52.42;155473.25;4972843;28;20488;-83
2023/04/27 08:54:15;;;;;;;7.60;6.27;;;;;;;15.75;52.58;155408.22;4972041;28;21086;-84
2023/04/27 08:56:41;;;;;;;9.63;7.10;;;;;;;15.80;53.59;155419.94;4979956;28;20494;-84
2023/04/27 08:59:14;;;;;;;5.40;4.90;;;;;;;15.90;51.91;155444.63;4971046;28;20995;-83
2023/04/27 09:01:44;;;;;;;8.00;6.13;;;;;;;15.69;52.36;155392.66;4955873;28;20455;-83
2023/04/27 09:04:11;;;;;;;6.40;5.80;;;;;;;15.72;51.40;155399.16;4980209;28;20446;-84
2023/04/27 09:06:39;;;;;;;6.13;4.73;;;;;;;15.73;52.45;155403.03;4981019;28;20448;-83
2023/04/27 09:09:06;;;;;;;7.20;5.47;;;;;;;15.79;52.18;155417.34;4979670;28;20459;-82
2023/04/27 09:11:34;;;;;;;5.97;5.20;;;;;;;15.90;51.66;155444.63;4951269;28;20549;-83
2023/04/27 09:14:02;;;;;;;8.90;5.23;;;;;;;16.00;48.67;155470.63;4952140;28;20458;-84
2023/04/27 09:16:29;;;;;;;6.90;5.30;;;;;;;16.02;49.17;155475.88;4952196;28;20500;-84
2023/04/27 09:18:57;;;;;;;6.53;5.30;;;;;;;15.96;48.29;155460.25;4960266;28;20462;-84
2023/04/27 09:21:24;;;;;;;9.47;4.80;;;;;;;15.84;48.87;155430.31;4951153;28;20467;-84
2023/04/27 09:23:52;;;;;;;6.10;5.50;;;;;;;15.89;50.63;155442.00;4950340;28;20460;-84
2023/04/27 09:26:21;;;;;;;5.60;5.00;;;;;;;15.93;51.29;155452.44;4951142;28;20457;-84
2023/04/27 09:28:49;;;;;;;7.40;5.50;;;;;;;15.91;50.51;155447.25;4959175;28;20459;-84
2023/04/27 09:31:16;;;;;;;6.60;4.97;;;;;;;16.00;49.93;155471.94;4951188;28;20463;-84
2023/04/27 09:33:44;;;;;;;6.03;5.20;;;;;;;16.17;49.86;155514.88;4950649;28;21401;-84
2023/04/27 09:36:11;;;;;;;11.77;6.33;;;;;;;16.23;49.59;155531.75;4942620;28;20494;-83
2023/04/27 09:38:37;;;;;;;5.97;5.37;;;;;;;16.28;55.72;155543.47;4948507;28;20989;-84
2023/04/27 09:41:06;;;;;;;6.27;4.87;;;;;;;15.94;49.21;155455.06;4949746;28;20459;-83
2023/04/27 09:43:32;;;;;;;7.43;6.00;;;;;;;15.62;50.09;155374.41;4950604;28;20505;-84
2023/04/27 09:46:00;;;;;;;8.60;5.63;;;;;;;15.07;52.73;155231.41;4924904;28;20466;-83
2023/04/27 09:48:26;;;;;;;8.47;5.30;;;;;;;15.11;53.29;155243.16;4949594;28;20540;-83
2023/04/27 09:50:53;;;;;;;7.90;5.47;;;;;;;15.04;53.05;155223.63;4950103;28;20471;-83
2023/04/27 09:53:23;;;;;;;7.17;5.47;;;;;;;15.02;52.30;155219.75;4958108;28;20805;-83
2023/04/27 09:55:59;;;;;;;5.43;4.83;;;;;;;15.20;51.78;155265.19;4957624;28;20487;-83
2023/04/27 09:58:51;;;;;;;5.77;5.20;;;;;;;15.11;52.41;155241.84;4950570;28;20513;-83
2023/04/27 10:01:23;;;;;;;6.23;4.80;;;;;;;14.63;51.08;155119.72;4956788;28;20464;-85
2023/04/27 10:04:02;;;;;;;7.23;5.20;;;;;;;14.41;51.98;155061.25;4948548;28;20529;-85
2023/04/27 10:06:53;;;;;;;5.90;5.30;;;;;;;14.30;51.68;155032.63;4950412;28;20538;-85
2023/04/27 10:09:23;;;;;;;7.03;5.50;;;;;;;14.24;52.19;155017.09;4960072;28;21053;-85
2023/04/27 10:11:50;;;;;;;10.33;5.50;;;;;;;14.34;53.46;155044.41;4988145;28;20513;-85
2023/04/27 10:14:20;;;;;;;6.43;5.20;;;;;;;14.33;54.27;155040.47;4977974;28;21076;-83
2023/04/27 10:16:50;;;;;;;5.63;4.97;;;;;;;14.46;55.16;155075.53;4977874;28;20588;-83
2023/04/27 10:19:16;;;;;;;7.30;5.37;;;;;;;14.62;62.89;155117.09;4977253;28;20450;-83
2023/04/27 10:21:56;;;;;;;6.00;5.40;;;;;;;14.66;58.09;155126.22;4978630;28;20493;-84
2023/04/27 10:24:36;;;;;;;6.47;5.80;;;;;;;14.82;53.56;155167.78;4979847;28;20454;-83
2023/04/27 10:27:05;;;;;;;6.47;5.50;;;;;;;14.77;52.55;155153.50;4976145;28;20461;-84
2023/04/27 10:29:38;;;;;;;5.83;5.30;;;;;;;14.82;51.18;155166.47;4979380;28;20477;-83
2023/04/27 10:32:11;;;;;;;10.93;5.50;;;;;;;14.80;52.55;155161.31;4988909;28;20788;-83
2023/04/27 10:34:40;;;;;;;6.90;5.37;;;;;;;14.88;53.56;155182.09;4987994;28;20816;-84
2023/04/27 10:37:08;;;;;;;6.00;5.40;;;;;;;14.97;61.05;155205.44;4978202;28;20481;-84
2023/04/27 10:39:35;;;;;;;7.20;5.23;;;;;;;14.91;54.31;155191.16;4985446;28;20852;-83
2023/04/27 10:42:02;;;;;;;7.03;6.03;;;;;;;15.05;56.85;155226.22;4976732;28;20822;-84
2023/04/27 10:44:30;;;;;;;6.63;6.03;;;;;;;15.07;51.05;155231.41;4987783;28;20523;-84
2023/04/27 10:47:00;;;;;;;6.60;5.90;;;;;;;15.17;52.26;155257.41;4977690;28;20471;-84
2023/04/27 10:49:27;;;;;;;10.97;6.63;;;;;;;15.29;51.34;155287.31;4987459;28;20458;-84
2023/04/27 10:51:55;;;;;;;7.63;5.30;;;;;;;15.34;52.45;155300.28;4977310;28;21018;-84
2023/04/27 10:54:26;;;;;;;8.73;6.57;;;;;;;15.38;49.97;155310.72;4978462;28;20786;-84
2023/04/27 10:56:53;;;;;;;7.77;5.43;;;;;;;15.42;49.50;155322.41;4976902;28;20908;-84
2023/04/27 10:59:20;;;;;;;7.33;6.30;;;;;;;15.36;50.49;155306.78;4976599;28;20483;-84
2023/04/27 11:01:50;;;;;;;6.60;5.47;;;;;;;15.37;50.86;155309.41;4987810;28;20896;-84
2023/04/27 11:04:18;;;;;;;8.57;5.13;;;;;;;15.50;51.22;155341.94;4977430;28;20455;-84
2023/04/27 11:06:45;;;;;;;7.83;6.27;;;;;;;15.31;50.51;155292.50;4978994;28;20451;-84
2023/04/27 11:09:13;;;;;;;8.37;5.50;;;;;;;15.22;60.18;155270.44;4961009;28;20533;-84
2023/04/27 11:11:44;;;;;;;8.40;5.60;;;;;;;15.24;52.64;155275.63;4977718;28;20534;-85
2023/04/27 11:14:15;;;;;;;6.30;5.70;;;;;;;15.24;55.87;155276.94;4978596;28;20458;-84
2023/04/27 11:16:46;;;;;;;7.37;6.43;;;;;;;15.25;55.19;155278.19;4945931;28;20504;-84
2023/04/27 11:19:13;;;;;;;7.43;5.67;;;;;;;15.21;52.09;155267.81;4987715;28;20453;-85
2023/04/27 11:21:41;;;;;;;7.53;5.90;;;;;;;15.35;57.29;155302.91;4988798;28;20943;-84
2023/04/27 11:24:08;;;;;;;8.70;6.37;;;;;;;15.47;63.91;155335.44;4976678;28;20546;-84
2023/04/27 11:26:35;;;;;;;6.90;5.70;;;;;;;15.36;54.67;155306.78;4978414;28;20455;-84
2023/04/27 11:29:04;;;;;;;6.77;4.90;;;;;;;15.38;54.47;155310.72;4987797;28;20455;-85